createdAt,value
2022-09-12T00:03:55.394Z,16.76
2022-09-12T00:07:57.187Z,16.77
2022-09-12T00:11:58.865Z,16.72
2022-09-12T00:16:01.102Z,16.71
2022-09-12T00:20:04.491Z,16.71
2022-09-12T00:24:06.778Z,16.69
2022-09-12T00:28:08.545Z,16.67
2022-09-12T00:32:10.219Z,16.60
2022-09-12T00:36:18.490Z,16.58
2022-09-12T00:40:20.193Z,16.58
2022-09-12T00:44:21.742Z,16.58
2022-09-12T00:48:32.121Z,16.58
2022-09-12T00:52:43.749Z,16.57
2022-09-12T00:56:47.807Z,16.58
2022-09-12T01:00:50.183Z,16.58
2022-09-12T01:04:52.319Z,16.58
2022-09-12T01:08:55.116Z,16.56
2022-09-12T01:12:57.479Z,16.53
2022-09-12T01:16:59.557Z,16.52
2022-09-12T01:21:26.072Z,16.49
2022-09-12T01:25:44.614Z,16.45
2022-09-12T01:30:23.738Z,16.45
2022-09-12T01:34:34.414Z,16.44
2022-09-12T01:38:47.157Z,16.42
2022-09-12T01:43:04.374Z,16.40
2022-09-12T01:47:15.778Z,16.34
2022-09-12T01:51:26.410Z,16.32
2022-09-12T01:55:32.679Z,16.32
2022-09-12T01:59:39.644Z,16.30
2022-09-12T02:03:51.208Z,16.28
2022-09-12T02:08:01.241Z,16.28
2022-09-12T02:12:04.921Z,16.23
2022-09-12T02:16:11.286Z,16.20
2022-09-12T02:20:48.275Z,16.19
2022-09-12T02:24:55.666Z,16.18
2022-09-12T02:28:57.667Z,16.18
2022-09-12T02:33:06.318Z,16.17
2022-09-12T02:37:19.023Z,16.13
2022-09-12T02:41:21.781Z,16.10
2022-09-12T02:45:23.855Z,16.08
2022-09-12T02:49:25.606Z,16.07
2022-09-12T02:53:27.636Z,16.05
2022-09-12T02:57:29.290Z,16.05
2022-09-12T03:01:50.182Z,16.07
2022-09-12T03:06:01.104Z,16.10
2022-09-12T03:10:23.186Z,16.13
2022-09-12T03:14:51.178Z,16.14
2022-09-12T03:19:03.856Z,16.13
2022-09-12T03:23:20.230Z,16.14
2022-09-12T03:27:34.936Z,16.14
2022-09-12T03:31:36.632Z,16.15
2022-09-12T03:35:38.528Z,16.16
2022-09-12T03:39:40.391Z,16.15
2022-09-12T03:43:42.212Z,16.14
2022-09-12T03:47:43.869Z,16.14
2022-09-12T03:51:45.620Z,16.11
2022-09-12T03:55:47.284Z,16.10
2022-09-12T03:59:50.349Z,16.10
2022-09-12T04:03:52.915Z,16.08
2022-09-12T04:07:54.563Z,16.09
2022-09-12T04:11:56.245Z,16.10
2022-09-12T04:15:59.722Z,16.09
2022-09-12T04:20:01.567Z,16.10
2022-09-12T04:24:03.552Z,16.09
2022-09-12T04:28:05.177Z,16.09
2022-09-12T04:32:06.829Z,16.07
2022-09-12T04:36:16.806Z,16.07
2022-09-12T04:40:19.108Z,16.01
2022-09-12T04:44:20.783Z,15.98
2022-09-12T04:48:22.541Z,15.97
2022-09-12T04:52:24.334Z,15.96
2022-09-12T04:56:26.952Z,15.95
2022-09-12T05:00:29.110Z,15.93
2022-09-12T05:04:31.660Z,15.91
2022-09-12T05:08:35.067Z,15.88
2022-09-12T05:12:37.047Z,15.86
2022-09-12T05:16:39.017Z,15.84
2022-09-12T05:20:40.802Z,15.82
2022-09-12T05:24:47.284Z,15.79
2022-09-12T05:28:53.051Z,15.78
2022-09-12T05:32:54.713Z,15.76
2022-09-12T05:36:56.389Z,15.75
2022-09-12T05:41:06.313Z,15.75
2022-09-12T05:45:08.759Z,15.78
2022-09-12T05:49:12.823Z,15.77
2022-09-12T05:53:14.479Z,15.74
2022-09-12T05:57:16.141Z,15.72
2022-09-12T06:01:19.341Z,15.74
2022-09-12T06:05:21.158Z,15.74
2022-09-12T06:09:25.458Z,15.77
2022-09-12T06:13:27.285Z,15.79
2022-09-12T06:17:29.046Z,15.84
2022-09-12T06:21:31.417Z,15.91
2022-09-12T06:25:33.085Z,16.00
2022-09-12T06:29:34.759Z,16.08
2022-09-12T06:33:38.612Z,16.17
2022-09-12T06:37:40.788Z,16.26
2022-09-12T06:41:44.271Z,16.33
2022-09-12T06:45:50.383Z,16.44
2022-09-12T06:49:52.107Z,16.53
2022-09-12T06:53:57.635Z,16.62
2022-09-12T06:57:59.915Z,16.71
2022-09-12T07:02:01.722Z,16.82
2022-09-12T07:06:08.642Z,16.88
2022-09-12T07:10:12.035Z,16.91
2022-09-12T07:14:15.150Z,16.95
2022-09-12T07:18:16.853Z,16.99
2022-09-12T07:22:19.220Z,17.01
2022-09-12T07:26:21.431Z,17.09
2022-09-12T07:30:23.307Z,17.21
2022-09-12T07:34:25.055Z,17.33
2022-09-12T07:38:26.747Z,17.46
2022-09-12T07:42:28.786Z,17.57
2022-09-12T07:46:31.447Z,17.68
2022-09-12T07:50:33.628Z,17.82
2022-09-12T07:54:35.389Z,17.91
2022-09-12T07:58:39.269Z,17.96
2022-09-12T08:02:41.285Z,17.98
2022-09-12T08:06:43.222Z,18.05
2022-09-12T08:10:44.869Z,18.11
2022-09-12T08:14:46.777Z,18.15
2022-09-12T08:18:49.431Z,18.22
2022-09-12T08:22:51.434Z,18.29
2022-09-12T08:26:53.110Z,18.38
2022-09-12T08:30:54.947Z,18.44
2022-09-12T08:34:56.664Z,18.48
2022-09-12T08:39:00.767Z,18.51
2022-09-12T08:43:25.955Z,18.57
2022-09-12T08:47:34.610Z,18.62
2022-09-12T08:51:36.959Z,18.66
2022-09-12T08:55:51.378Z,18.73
2022-09-12T08:59:53.665Z,18.81
2022-09-12T09:04:26.907Z,18.87
2022-09-12T09:08:59.410Z,18.95
2022-09-12T09:13:14.198Z,19.03
2022-09-12T09:17:41.142Z,19.13
2022-09-12T09:21:42.749Z,19.19
2022-09-12T09:25:56.495Z,19.29
2022-09-12T09:29:58.186Z,19.32
2022-09-12T09:34:00.613Z,19.34
2022-09-12T09:38:24.655Z,19.37
2022-09-12T09:42:32.137Z,19.40
2022-09-12T09:46:34.085Z,19.45
2022-09-12T09:50:37.478Z,19.52
2022-09-12T09:54:44.389Z,19.56
2022-09-12T09:58:46.366Z,19.60
2022-09-12T10:03:11.341Z,19.71
2022-09-12T10:07:20.211Z,19.80
2022-09-12T10:11:23.300Z,19.87
2022-09-12T10:15:26.688Z,19.89
2022-09-12T10:19:40.455Z,19.90
2022-09-12T10:23:43.416Z,19.93
2022-09-12T10:27:45.354Z,20.01
2022-09-12T10:31:59.734Z,20.13
2022-09-12T10:36:02.503Z,20.24
2022-09-12T10:40:20.863Z,20.35
2022-09-12T10:44:28.467Z,20.47
2022-09-12T10:48:33.654Z,20.55
2022-09-12T10:52:35.464Z,20.57
2022-09-12T10:57:02.081Z,20.66
2022-09-12T11:01:19.285Z,20.72
2022-09-12T11:05:45.362Z,20.79
2022-09-12T11:10:11.960Z,20.80
2022-09-12T11:15:07.062Z,20.81
2022-09-12T11:19:50.991Z,20.85
2022-09-12T11:24:23.784Z,20.90
2022-09-12T11:28:53.663Z,20.94
2022-09-12T11:33:40.877Z,20.98
2022-09-12T11:37:52.555Z,21.05
2022-09-12T11:42:02.105Z,21.09
2022-09-12T11:46:11.682Z,21.11
2022-09-12T11:50:27.135Z,21.14
2022-09-12T11:54:44.924Z,21.19
2022-09-12T11:58:53.221Z,21.24
2022-09-12T12:03:06.903Z,21.35
2022-09-12T12:07:11.410Z,21.41
2022-09-12T12:11:16.506Z,21.45
2022-09-12T12:15:19.268Z,21.49
2022-09-12T12:19:32.914Z,21.52
2022-09-12T12:23:35.501Z,21.56
2022-09-12T12:27:53.835Z,21.58
2022-09-12T12:32:02.170Z,21.67
2022-09-12T12:36:08.138Z,21.70
2022-09-12T12:40:22.907Z,21.77
2022-09-12T12:44:44.808Z,21.83
2022-09-12T12:48:55.873Z,21.89
2022-09-12T12:53:17.111Z,21.94
2022-09-12T12:57:29.938Z,22.03
2022-09-12T13:01:32.595Z,22.10
2022-09-12T13:05:44.976Z,22.15
2022-09-12T13:09:55.439Z,22.20
2022-09-12T13:14:03.329Z,22.28
2022-09-12T13:18:12.607Z,22.38
2022-09-12T13:22:14.651Z,22.46
2022-09-12T13:26:25.726Z,22.50
2022-09-12T13:30:31.495Z,22.54
2022-09-12T13:34:58.278Z,22.54
2022-09-12T13:39:27.720Z,22.55
2022-09-12T13:43:42.820Z,22.60
2022-09-12T13:47:47.674Z,22.62
2022-09-12T13:52:03.377Z,22.66
2022-09-12T13:56:05.172Z,22.64
2022-09-12T14:00:20.052Z,22.65
2022-09-12T14:04:43.396Z,22.65
2022-09-12T14:08:47.825Z,22.69
2022-09-12T14:12:52.910Z,22.69
2022-09-12T14:16:54.938Z,22.72
2022-09-12T14:21:01.047Z,22.75
2022-09-12T14:25:03.285Z,22.78
2022-09-12T14:29:06.644Z,22.83
2022-09-12T14:33:11.319Z,22.87
2022-09-12T14:37:13.098Z,22.92
2022-09-12T14:41:23.320Z,22.96
2022-09-12T14:45:31.553Z,23.01
2022-09-12T14:49:36.844Z,23.07
2022-09-12T14:53:49.127Z,23.12
2022-09-12T14:58:12.569Z,23.14
2022-09-12T15:02:17.189Z,23.13
2022-09-12T15:06:26.679Z,23.09
2022-09-12T15:10:35.863Z,23.08
2022-09-12T15:14:37.512Z,23.10
2022-09-12T15:18:39.388Z,23.16
2022-09-12T15:22:42.226Z,23.28
2022-09-12T15:26:43.906Z,23.27
2022-09-12T15:30:47.512Z,23.27
2022-09-12T15:34:49.216Z,23.30
2022-09-12T15:38:51.909Z,23.23
2022-09-12T15:42:53.553Z,23.09
2022-09-12T15:46:55.258Z,22.93
2022-09-12T15:51:01.446Z,22.85
2022-09-12T15:55:04.434Z,22.79
2022-09-12T15:59:06.230Z,22.73
2022-09-12T16:03:23.692Z,22.74
2022-09-12T16:07:25.331Z,22.73
2022-09-12T16:11:27.599Z,22.69
2022-09-12T16:15:29.263Z,22.63
2022-09-12T16:19:30.992Z,22.55
2022-09-12T16:23:33.048Z,22.49
2022-09-12T16:27:35.698Z,22.44
2022-09-12T16:31:38.512Z,22.38
2022-09-12T16:35:40.257Z,22.34
2022-09-12T16:39:42.085Z,22.29
2022-09-12T16:43:44.524Z,22.24
2022-09-12T16:47:46.217Z,22.20
2022-09-12T16:51:47.916Z,22.14
2022-09-12T16:55:50.319Z,22.08
2022-09-12T16:59:52.219Z,22.02
2022-09-12T17:03:56.589Z,21.97
2022-09-12T17:07:58.263Z,21.93
2022-09-12T17:12:00.709Z,21.92
2022-09-12T17:16:12.381Z,21.86
2022-09-12T17:20:14.099Z,21.83
2022-09-12T17:24:17.670Z,21.81
2022-09-12T17:28:20.173Z,21.75
2022-09-12T17:32:21.906Z,21.69
2022-09-12T17:36:23.562Z,21.62
2022-09-12T17:40:42.523Z,21.58
2022-09-12T17:44:46.882Z,21.50
2022-09-12T17:48:56.843Z,21.43
2022-09-12T17:52:58.530Z,21.37
2022-09-12T17:57:00.198Z,21.31
2022-09-12T18:01:22.445Z,21.26
2022-09-12T18:05:24.139Z,21.17
2022-09-12T18:09:26.837Z,21.09
2022-09-12T18:13:28.514Z,21.03
2022-09-12T18:17:30.194Z,20.94
2022-09-12T18:21:32.079Z,20.89
2022-09-12T18:25:33.755Z,20.83
2022-09-12T18:29:35.493Z,20.77
2022-09-12T18:33:37.984Z,20.73
2022-09-12T18:37:42.489Z,20.67
2022-09-12T18:41:44.459Z,20.63
2022-09-12T18:45:46.113Z,20.58
2022-09-12T18:49:48.624Z,20.54
2022-09-12T18:53:53.636Z,20.52
2022-09-12T18:57:55.701Z,20.49
2022-09-12T19:01:57.939Z,20.48
2022-09-12T19:05:59.736Z,20.48
2022-09-12T19:10:01.459Z,20.46
2022-09-12T19:14:03.359Z,20.45
2022-09-12T19:18:05.100Z,20.44
2022-09-12T19:22:06.787Z,20.43
2022-09-12T19:26:10.937Z,20.42
2022-09-12T19:30:12.750Z,20.39
2022-09-12T19:34:15.078Z,20.36
2022-09-12T19:38:17.063Z,20.33
2022-09-12T19:42:18.796Z,20.30
2022-09-12T19:46:22.677Z,20.27
2022-09-12T19:50:24.802Z,20.25
2022-09-12T19:54:26.423Z,20.23
2022-09-12T19:58:29.242Z,20.21
2022-09-12T20:02:31.122Z,20.18
2022-09-12T20:06:32.931Z,20.14
2022-09-12T20:10:34.647Z,20.09
2022-09-12T20:14:36.381Z,20.05
2022-09-12T20:18:41.622Z,20.02
2022-09-12T20:22:43.356Z,19.99
2022-09-12T20:26:45.188Z,19.96
2022-09-12T20:30:47.035Z,19.94
2022-09-12T20:34:48.718Z,19.93
2022-09-12T20:38:53.401Z,19.91
2022-09-12T20:42:55.092Z,19.88
2022-09-12T20:46:57.126Z,19.84
2022-09-12T20:50:59.823Z,19.82
2022-09-12T20:55:01.548Z,19.81
2022-09-12T20:59:04.232Z,19.79
2022-09-12T21:03:05.876Z,19.77
2022-09-12T21:07:07.581Z,19.77
2022-09-12T21:11:10.001Z,19.76
2022-09-12T21:15:11.700Z,19.75
2022-09-12T21:19:13.381Z,19.75
2022-09-12T21:23:15.064Z,19.74
2022-09-12T21:27:16.867Z,19.73
2022-09-12T21:31:18.674Z,19.73
2022-09-12T21:35:20.391Z,19.72
2022-09-12T21:39:22.367Z,19.72
2022-09-12T21:43:24.065Z,19.73
2022-09-12T21:47:25.715Z,19.74
2022-09-12T21:51:27.411Z,19.73
2022-09-12T21:55:29.307Z,19.75
2022-09-12T21:59:31.142Z,19.74
2022-09-12T22:03:32.990Z,19.73
2022-09-12T22:07:34.704Z,19.72
2022-09-12T22:11:36.391Z,19.72
2022-09-12T22:15:40.941Z,19.71
2022-09-12T22:19:43.033Z,19.70
2022-09-12T22:24:04.449Z,19.69
2022-09-12T22:28:06.227Z,19.69
2022-09-12T22:32:08.010Z,19.67
2022-09-12T22:36:10.205Z,19.67
2022-09-12T22:40:12.066Z,19.65
2022-09-12T22:44:14.167Z,19.64
2022-09-12T22:48:17.225Z,19.63
2022-09-12T22:52:18.950Z,19.61
2022-09-12T22:56:20.622Z,19.60
2022-09-12T23:00:23.660Z,19.57
2022-09-12T23:04:25.462Z,19.55
2022-09-12T23:08:29.706Z,19.53
2022-09-12T23:12:32.060Z,19.52
2022-09-12T23:16:33.880Z,19.51
2022-09-12T23:20:35.741Z,19.51
2022-09-12T23:24:38.373Z,19.50
2022-09-12T23:28:41.594Z,19.50
2022-09-12T23:32:43.292Z,19.48
2022-09-12T23:36:44.990Z,19.46
2022-09-12T23:40:46.691Z,19.45
2022-09-12T23:44:48.389Z,19.44
2022-09-12T23:48:50.423Z,19.45
2022-09-12T23:52:52.153Z,19.45
2022-09-12T23:56:53.828Z,19.46
